createdAt,value
2019-06-26T00:00:00.000Z,36.2
2019-06-26T00:02:00.000Z,36.3
2019-06-26T00:04:00.000Z,36.4
2019-06-26T00:06:00.000Z,36.4
2019-06-26T00:08:00.000Z,36.4
2019-06-26T00:09:44.000Z,36.4
2019-06-26T00:10:59.000Z,36.3
2019-06-26T00:12:00.000Z,36.3
2019-06-26T00:14:00.000Z,36.3
2019-06-26T00:15:00.000Z,36.3
2019-06-26T00:16:00.000Z,36.3
2019-06-26T00:17:00.000Z,36.4
2019-06-26T00:19:00.000Z,36.5
2019-06-26T00:21:00.000Z,36.4
2019-06-26T00:22:00.000Z,36.4
2019-06-26T00:23:45.000Z,36.5
2019-06-26T00:25:00.000Z,36.4
2019-06-26T00:27:00.000Z,36.3
2019-06-26T00:28:00.000Z,36.2
2019-06-26T00:30:00.000Z,36.3
2019-06-26T00:31:44.000Z,36.3
2019-06-26T00:33:00.000Z,36.3
2019-06-26T00:34:00.000Z,36.3
2019-06-26T00:35:00.000Z,36.4
2019-06-26T00:37:00.000Z,36.5
2019-06-26T00:38:00.000Z,36.5
2019-06-26T00:41:46.000Z,36.2
2019-06-26T00:43:31.000Z,36.1
2019-06-26T00:45:16.000Z,35.6
2019-06-26T00:46:31.000Z,36
2019-06-26T00:48:31.000Z,36
2019-06-26T00:50:31.000Z,36.1
2019-06-26T00:52:31.000Z,36.2
2019-06-26T00:54:31.000Z,36.2
2019-06-26T00:55:31.000Z,36.2
2019-06-26T00:57:31.000Z,36.3
2019-06-26T00:58:31.000Z,36.4
2019-06-26T01:00:31.000Z,36.4
2019-06-26T01:02:31.000Z,36.4
2019-06-26T01:04:32.000Z,36.3
2019-06-26T01:05:32.000Z,36.4
2019-06-26T01:07:32.000Z,36.3
2019-06-26T01:09:17.000Z,36.3
2019-06-26T01:10:32.000Z,36.2
2019-06-26T01:12:32.000Z,36.2
2019-06-26T01:13:32.000Z,36.2
2019-06-26T01:15:32.000Z,36.2
2019-06-26T01:17:17.000Z,36.2
2019-06-26T01:18:32.000Z,36.2
2019-06-26T01:19:32.000Z,36.2
2019-06-26T01:21:17.000Z,36.3
2019-06-26T01:22:32.000Z,36.3
2019-06-26T01:24:32.000Z,36.3
2019-06-26T01:25:53.000Z,36.3
2019-06-26T01:27:53.000Z,36.3
2019-06-26T01:28:53.000Z,36.4
2019-06-26T01:29:53.000Z,36.4
2019-06-26T01:31:52.000Z,36.5
2019-06-26T01:33:52.000Z,36.5
2019-06-26T01:35:52.000Z,36.4
2019-06-26T01:36:52.000Z,36.4
2019-06-26T01:37:52.000Z,36.5
2019-06-26T01:39:52.000Z,36.5
2019-06-26T01:41:52.000Z,36.5
2019-06-26T01:42:52.000Z,36.5
2019-06-26T01:44:52.000Z,36.5
2019-06-26T01:46:52.000Z,36.3
2019-06-26T01:48:52.000Z,36.3
2019-06-26T01:50:52.000Z,36.3
2019-06-26T01:52:52.000Z,36.3
2019-06-26T01:54:52.000Z,36.3
2019-06-26T01:55:52.000Z,36.3
2019-06-26T01:56:52.000Z,36.3
2019-06-26T01:58:52.000Z,36.3
2019-06-26T01:59:52.000Z,36.3
2019-06-26T02:01:52.000Z,36.3
2019-06-26T02:02:52.000Z,36.2
2019-06-26T02:04:37.000Z,36.2
2019-06-26T02:05:52.000Z,36.2
2019-06-26T02:07:52.000Z,36.2
2019-06-26T02:09:52.000Z,36.2
2019-06-26T02:10:52.000Z,36.2
2019-06-26T02:12:52.000Z,36.2
2019-06-26T02:13:52.000Z,36.3
2019-06-26T02:15:52.000Z,36.3
2019-06-26T02:17:52.000Z,36.3
2019-06-26T02:18:52.000Z,36.4
2019-06-26T02:20:37.000Z,36.4
2019-06-26T02:21:52.000Z,36.4
2019-06-26T02:22:52.000Z,36.4
2019-06-26T02:23:52.000Z,36.4
2019-06-26T02:25:52.000Z,36.4
2019-06-26T02:26:52.000Z,36.5
2019-06-26T02:27:52.000Z,36.5
2019-06-26T02:29:53.000Z,36.5
2019-06-26T02:31:53.000Z,36.5
2019-06-26T02:32:53.000Z,36.5
2019-06-26T02:34:53.000Z,36.5
2019-06-26T02:36:53.000Z,36.4
2019-06-26T02:38:53.000Z,36.3
2019-06-26T02:39:53.000Z,36.2
2019-06-26T02:40:53.000Z,36.3
2019-06-26T02:42:38.000Z,36.4
2019-06-26T02:43:53.000Z,36.3
2019-06-26T02:45:53.000Z,36.3
2019-06-26T02:46:53.000Z,36.3
2019-06-26T02:48:53.000Z,36.2
2019-06-26T02:50:53.000Z,36.2
2019-06-26T02:52:53.000Z,36.1
2019-06-26T02:53:53.000Z,36.1
2019-06-26T02:55:38.000Z,36.1
2019-06-26T02:56:53.000Z,36.1
2019-06-26T02:58:53.000Z,36.1
2019-06-26T03:00:53.000Z,36.1
2019-06-26T03:01:53.000Z,36.1
2019-06-26T03:02:53.000Z,36.2
2019-06-26T03:04:53.000Z,36.2
2019-06-26T03:05:53.000Z,36.2
2019-06-26T03:06:53.000Z,36.3
2019-06-26T03:07:53.000Z,36.3
2019-06-26T03:08:53.000Z,36.3
2019-06-26T03:10:53.000Z,36.4
2019-06-26T03:11:53.000Z,36.4
2019-06-26T03:13:38.000Z,36.5
2019-06-26T03:14:53.000Z,36.4
2019-06-26T03:16:53.000Z,36.2
2019-06-26T03:18:53.000Z,36.1
2019-06-26T03:19:53.000Z,36.1
2019-06-26T03:21:53.000Z,36.1
2019-06-26T03:23:53.000Z,36
2019-06-26T03:25:53.000Z,36
2019-06-26T03:27:53.000Z,36
2019-06-26T03:29:38.000Z,36
2019-06-26T03:30:53.000Z,36
2019-06-26T03:32:38.000Z,36.1
2019-06-26T03:33:53.000Z,36.1
2019-06-26T03:35:38.000Z,36.1
2019-06-26T03:36:53.000Z,36
2019-06-26T03:37:53.000Z,36
2019-06-26T03:39:53.000Z,36
2019-06-26T03:40:53.000Z,36
2019-06-26T03:42:53.000Z,36.1
2019-06-26T03:43:53.000Z,36.1
2019-06-26T03:45:53.000Z,36.2
2019-06-26T03:47:53.000Z,36.2
2019-06-26T03:49:53.000Z,36.2
2019-06-26T03:51:53.000Z,36.2
2019-06-26T03:53:53.000Z,36.1
2019-06-26T03:55:53.000Z,36.1
2019-06-26T03:56:53.000Z,36.1
2019-06-26T03:58:53.000Z,36.2
2019-06-26T04:00:53.000Z,36.2
2019-06-26T04:02:38.000Z,35.5
2019-06-26T04:03:53.000Z,34.8
2019-06-26T04:05:53.000Z,33.9
2019-06-26T04:07:53.000Z,33.3
2019-06-26T04:09:53.000Z,32.7
2019-06-26T04:10:53.000Z,32.5
2019-06-26T04:12:53.000Z,32.1
2019-06-26T04:13:53.000Z,32
2019-06-26T04:15:38.000Z,31.8
2019-06-26T04:16:53.000Z,31.5
2019-06-26T04:17:53.000Z,31.4
2019-06-26T04:18:53.000Z,31.4
2019-06-26T04:20:53.000Z,31.3
2019-06-26T04:22:53.000Z,31.3
2019-06-26T04:24:53.000Z,31.2
2019-06-26T04:26:53.000Z,31
2019-06-26T04:28:53.000Z,30.8
2019-06-26T04:30:53.000Z,30.7
2019-06-26T04:31:53.000Z,30.6
2019-06-26T04:33:53.000Z,30.6
2019-06-26T04:34:53.000Z,30.6
2019-06-26T04:36:53.000Z,30.5
2019-06-26T04:38:53.000Z,30.4
2019-06-26T04:40:52.000Z,30.2
2019-06-26T04:41:53.000Z,30.2
2019-06-26T04:42:53.000Z,30.2
2019-06-26T04:44:53.000Z,30.3
2019-06-26T04:45:53.000Z,30.3
2019-06-26T04:47:53.000Z,30.3
2019-06-26T04:49:53.000Z,30.3
2019-06-26T04:51:52.000Z,30.2
2019-06-26T04:52:53.000Z,30.2
2019-06-26T04:54:53.000Z,30.4
2019-06-26T04:56:53.000Z,30.4
2019-06-26T04:57:53.000Z,30.4
2019-06-26T04:58:53.000Z,30.4
2019-06-26T05:00:38.000Z,30.5
2019-06-26T05:01:53.000Z,30.5
2019-06-26T05:03:53.000Z,30.5
2019-06-26T05:04:53.000Z,30.5
2019-06-26T05:06:52.000Z,30.4
2019-06-26T05:07:53.000Z,30.4
2019-06-26T05:09:38.000Z,30.4
2019-06-26T05:10:53.000Z,30.4
2019-06-26T05:12:37.000Z,30.4
2019-06-26T05:13:53.000Z,30.3
2019-06-26T05:14:53.000Z,30.3
2019-06-26T05:16:53.000Z,30.4
2019-06-26T05:18:53.000Z,30.5
2019-06-26T05:20:53.000Z,30.5
2019-06-26T05:22:53.000Z,30.5
2019-06-26T05:24:53.000Z,30.5
2019-06-26T05:25:53.000Z,30.6
2019-06-26T05:27:53.000Z,30.6
2019-06-26T05:29:53.000Z,30.6
2019-06-26T05:31:52.000Z,30.5
2019-06-26T05:32:53.000Z,30.5
2019-06-26T05:34:53.000Z,30.6
2019-06-26T05:36:37.000Z,30.6
2019-06-26T05:37:53.000Z,30.6
2019-06-26T05:39:53.000Z,30.7
2019-06-26T05:41:53.000Z,30.6
2019-06-26T05:42:53.000Z,30.6
2019-06-26T05:44:53.000Z,30.8
2019-06-26T05:46:53.000Z,30.8
2019-06-26T05:48:38.000Z,30.8
2019-06-26T05:49:53.000Z,30.7
2019-06-26T05:50:53.000Z,30.7
2019-06-26T05:52:38.000Z,30.8
2019-06-26T05:54:53.000Z,30.7
2019-06-26T05:55:53.000Z,30.7
2019-06-26T05:57:38.000Z,30.8
2019-06-26T05:58:53.000Z,30.8
2019-06-26T05:59:53.000Z,30.8
2019-06-26T06:01:38.000Z,30.9
2019-06-26T06:02:53.000Z,30.8
2019-06-26T06:04:53.000Z,30.8
2019-06-26T06:05:53.000Z,30.8
2019-06-26T06:07:53.000Z,30.7
2019-06-26T06:08:53.000Z,30.7
2019-06-26T06:09:53.000Z,30.8
2019-06-26T06:11:53.000Z,30.9
2019-06-26T06:12:53.000Z,31
2019-06-26T06:13:53.000Z,31.1
2019-06-26T06:14:53.000Z,31.3
2019-06-26T06:15:53.000Z,31.4
2019-06-26T06:17:53.000Z,31.5
2019-06-26T06:18:53.000Z,31.5
2019-06-26T06:20:53.000Z,31.6
2019-06-26T06:21:53.000Z,31.6
2019-06-26T06:22:53.000Z,31.7
2019-06-26T06:24:53.000Z,31.7
2019-06-26T06:26:53.000Z,31.6
2019-06-26T06:27:53.000Z,31.7
2019-06-26T06:29:53.000Z,31.8
2019-06-26T06:31:53.000Z,31.8
2019-06-26T06:33:53.000Z,31.7
2019-06-26T06:35:53.000Z,31.6
2019-06-26T06:37:53.000Z,31.5
2019-06-26T06:38:53.000Z,31.5
2019-06-26T06:39:53.000Z,31.6
2019-06-26T06:41:53.000Z,31.8
2019-06-26T06:43:53.000Z,31.9
2019-06-26T06:44:53.000Z,32
2019-06-26T06:46:53.000Z,32.1
2019-06-26T06:48:53.000Z,32
2019-06-26T06:49:53.000Z,32
2019-06-26T06:51:53.000Z,32
2019-06-26T06:53:53.000Z,32
2019-06-26T06:55:53.000Z,32
2019-06-26T06:57:53.000Z,32
2019-06-26T06:58:53.000Z,32
2019-06-26T07:00:53.000Z,32
2019-06-26T07:01:53.000Z,32
2019-06-26T07:02:53.000Z,32.2
2019-06-26T07:04:53.000Z,32.4
2019-06-26T07:06:53.000Z,32.4
2019-06-26T07:07:53.000Z,32.4
2019-06-26T07:09:53.000Z,32.5
2019-06-26T07:11:53.000Z,32.4
2019-06-26T07:12:53.000Z,32.5
2019-06-26T07:14:53.000Z,32.6
2019-06-26T07:16:53.000Z,32.7
2019-06-26T07:18:53.000Z,32.8
2019-06-26T07:20:53.000Z,32.8
2019-06-26T07:22:53.000Z,33
2019-06-26T07:23:53.000Z,33
2019-06-26T07:25:53.000Z,33.2
2019-06-26T07:27:53.000Z,33.2
2019-06-26T07:29:38.000Z,33.2
2019-06-26T07:30:53.000Z,33.2
2019-06-26T07:31:53.000Z,33.2
2019-06-26T07:33:53.000Z,33.2
2019-06-26T07:34:53.000Z,33.1
2019-06-26T07:36:53.000Z,33
2019-06-26T07:38:53.000Z,33
2019-06-26T07:40:53.000Z,33
2019-06-26T07:42:53.000Z,33.1
2019-06-26T07:44:38.000Z,33.3
2019-06-26T07:45:53.000Z,33.5
2019-06-26T07:46:53.000Z,33.6
2019-06-26T07:48:53.000Z,33.7
2019-06-26T07:50:53.000Z,33.6
2019-06-26T07:51:53.000Z,33.6
2019-06-26T07:53:53.000Z,33.7
2019-06-26T07:55:39.000Z,33.6
2019-06-26T07:56:53.000Z,33.9
2019-06-26T07:58:53.000Z,33.9
2019-06-26T07:59:53.000Z,33.9
2019-06-26T08:01:53.000Z,33.9
2019-06-26T08:03:54.000Z,34
2019-06-26T08:05:38.000Z,34.1
2019-06-26T08:06:53.000Z,34
2019-06-26T08:07:53.000Z,34.1
2019-06-26T08:09:53.000Z,34.1
2019-06-26T08:11:53.000Z,34.1
2019-06-26T08:13:53.000Z,34.1
2019-06-26T08:15:54.000Z,34.2
2019-06-26T08:17:53.000Z,34.2
2019-06-26T08:19:53.000Z,34.1
2019-06-26T08:21:53.000Z,34.1
2019-06-26T08:22:54.000Z,34.2
2019-06-26T08:24:53.000Z,34.3
2019-06-26T08:26:53.000Z,34.5
2019-06-26T08:28:53.000Z,34.6
2019-06-26T08:30:38.000Z,34.7
2019-06-26T08:31:53.000Z,34.7
2019-06-26T08:32:54.000Z,34.7
2019-06-26T08:34:39.000Z,34.9
2019-06-26T08:35:53.000Z,35
2019-06-26T08:37:53.000Z,35.2
2019-06-26T08:39:53.000Z,35.8
2019-06-26T08:41:53.000Z,36.6
2019-06-26T08:43:53.000Z,36.8
2019-06-26T08:45:38.000Z,36.6
2019-06-26T08:46:53.000Z,36.5
2019-06-26T08:47:53.000Z,36.4
2019-06-26T08:49:53.000Z,36.2
2019-06-26T08:50:53.000Z,36.1
2019-06-26T09:04:01.000Z,34.2
2019-06-26T09:05:32.000Z,34.3
2019-06-26T09:06:47.000Z,34.3
2019-06-26T09:22:02.000Z,34
2019-06-26T09:23:33.000Z,34.2
2019-06-26T09:25:18.000Z,34.5
2019-06-26T09:26:32.000Z,34.5
2019-06-26T09:28:32.000Z,34.7
2019-06-26T09:29:33.000Z,34.8
2019-06-26T09:31:33.000Z,35
2019-06-26T09:32:33.000Z,35.2
2019-06-26T09:33:33.000Z,35.2
2019-06-26T09:35:33.000Z,35
2019-06-26T09:37:33.000Z,34.6
2019-06-26T09:38:33.000Z,34.5
2019-06-26T09:39:33.000Z,34.5
2019-06-26T09:41:33.000Z,34.5
2019-06-26T09:43:32.000Z,34.1
2019-06-26T09:44:33.000Z,34
2019-06-26T09:45:33.000Z,33.9
2019-06-26T09:47:18.000Z,33.8
2019-06-26T09:48:33.000Z,33.6
2019-06-26T09:50:17.000Z,33.3
2019-06-26T09:51:18.000Z,33.2
2019-06-26T09:53:33.000Z,33.1
2019-06-26T09:55:32.000Z,33
2019-06-26T09:57:33.000Z,33.1
2019-06-26T10:07:21.000Z,32.8
2019-06-26T10:09:06.000Z,33.1
2019-06-26T10:10:21.000Z,33.3
2019-06-26T10:12:21.000Z,33.3
2019-06-26T10:13:21.000Z,33.5
2019-06-26T10:15:06.000Z,33.7
2019-06-26T10:16:21.000Z,33.6
2019-06-26T10:18:21.000Z,33.7
2019-06-26T10:20:21.000Z,33.5
2019-06-26T10:22:21.000Z,33.3
2019-06-26T10:23:21.000Z,33.2
2019-06-26T10:25:06.000Z,33.2
2019-06-26T10:26:21.000Z,33.2
2019-06-26T10:27:21.000Z,33.2
2019-06-26T10:29:06.000Z,33.4
2019-06-26T10:31:21.000Z,33.3
2019-06-26T10:33:21.000Z,33.1
2019-06-26T10:35:21.000Z,33.2
2019-06-26T10:36:21.000Z,33.3
2019-06-26T10:38:21.000Z,33.3
2019-06-26T10:39:36.000Z,33.3
2019-06-26T10:41:22.000Z,33.5
2019-06-26T10:42:22.000Z,33.7
2019-06-26T10:44:22.000Z,33.7
2019-06-26T10:45:22.000Z,33.7
2019-06-26T10:47:22.000Z,33.6
2019-06-26T10:49:22.000Z,33.3
2019-06-26T10:51:22.000Z,33
2019-06-26T10:53:22.000Z,32.9
2019-06-26T10:54:22.000Z,33
2019-06-26T10:56:22.000Z,33.4
2019-06-26T10:57:22.000Z,33.7
2019-06-26T10:59:22.000Z,34.1
2019-06-26T11:00:22.000Z,34.3
2019-06-26T11:02:23.000Z,34.6
2019-06-26T11:04:23.000Z,34.8
2019-06-26T11:05:23.000Z,34.8
2019-06-26T11:07:23.000Z,35
2019-06-26T11:08:23.000Z,35.1
2019-06-26T11:10:23.000Z,35.2
2019-06-26T11:11:23.000Z,35.3
2019-06-26T11:13:08.000Z,35.4
2019-06-26T11:14:23.000Z,35.4
2019-06-26T11:16:23.000Z,35.5
2019-06-26T11:18:23.000Z,35.5
2019-06-26T11:20:22.000Z,35.6
2019-06-26T11:21:23.000Z,35.6
2019-06-26T11:22:23.000Z,35.7
2019-06-26T11:23:23.000Z,35.8
2019-06-26T11:25:23.000Z,35.9
2019-06-26T11:27:23.000Z,35.9
2019-06-26T11:29:23.000Z,35.8
2019-06-26T11:31:23.000Z,35.8
2019-06-26T11:33:22.000Z,35.8
2019-06-26T11:35:22.000Z,35.8
2019-06-26T11:37:07.000Z,35.8
2019-06-26T11:38:22.000Z,35.6
2019-06-26T11:39:22.000Z,35.5
2019-06-26T11:41:22.000Z,35.4
2019-06-26T11:43:22.000Z,35
2019-06-26T11:44:22.000Z,34.9
2019-06-26T11:46:22.000Z,34.9
2019-06-26T11:48:22.000Z,34.8
2019-06-26T11:49:22.000Z,34.9
2019-06-26T11:50:22.000Z,35
2019-06-26T11:52:22.000Z,35.2
2019-06-26T11:54:07.000Z,35.1
2019-06-26T11:55:22.000Z,34.9
2019-06-26T11:57:22.000Z,34.8
2019-06-26T11:59:22.000Z,34.7
2019-06-26T12:01:22.000Z,34.6
2019-06-26T12:03:22.000Z,34.5
2019-06-26T12:04:22.000Z,34.5
2019-06-26T12:05:23.000Z,34.6
2019-06-26T12:07:23.000Z,34.5
2019-06-26T12:09:07.000Z,34.5
2019-06-26T12:10:07.000Z,34.5
2019-06-26T12:11:22.000Z,34.4
2019-06-26T12:12:22.000Z,34.3
2019-06-26T12:13:22.000Z,34.4
2019-06-26T12:14:22.000Z,34.5
2019-06-26T12:16:22.000Z,34.6
2019-06-26T12:18:22.000Z,34.5
2019-06-26T12:19:22.000Z,34.4
2019-06-26T12:25:17.000Z,33.8
2019-06-26T12:27:03.000Z,33.8
2019-06-26T12:28:03.000Z,34
2019-06-26T12:30:03.000Z,34.3
2019-06-26T12:31:03.000Z,34.4
2019-06-26T12:32:48.000Z,34.5
2019-06-26T12:34:03.000Z,34.3
2019-06-26T12:36:03.000Z,34.4
2019-06-26T12:37:03.000Z,34.5
2019-06-26T12:39:03.000Z,34.7
2019-06-26T12:41:03.000Z,34.9
2019-06-26T12:43:03.000Z,34.9
2019-06-26T12:45:03.000Z,34.7
2019-06-26T12:46:03.000Z,34.7
2019-06-26T12:48:03.000Z,34.7
2019-06-26T12:50:03.000Z,34.5
2019-06-26T12:52:03.000Z,34.2
2019-06-26T12:53:03.000Z,34.1
2019-06-26T12:55:03.000Z,33.9
2019-06-26T12:57:03.000Z,33.7
2019-06-26T12:59:03.000Z,33.7
2019-06-26T13:01:03.000Z,33.7
2019-06-26T13:02:03.000Z,33.7
2019-06-26T13:03:03.000Z,33.8
2019-06-26T13:04:09.000Z,33.9
2019-06-26T13:06:09.000Z,34
2019-06-26T13:11:26.000Z,33.5
2019-06-26T13:13:12.000Z,33.5
2019-06-26T13:14:57.000Z,33.6
2019-06-26T13:16:12.000Z,33.6
2019-06-26T13:17:12.000Z,33.6
2019-06-26T13:19:12.000Z,33.6
2019-06-26T13:20:12.000Z,33.6
2019-06-26T13:22:12.000Z,33.7
2019-06-26T14:00:50.000Z,33.4
2019-06-26T14:02:50.000Z,33.7
2019-06-26T14:03:50.000Z,34
2019-06-26T14:04:50.000Z,34.2
2019-06-26T14:06:35.000Z,34.6
2019-06-26T14:08:35.000Z,34.7
2019-06-26T14:09:50.000Z,34.8
2019-06-26T14:10:50.000Z,34.9
2019-06-26T14:12:50.000Z,35
2019-06-26T14:13:50.000Z,35
2019-06-26T14:15:50.000Z,35.2
2019-06-26T14:16:50.000Z,35.2
2019-06-26T14:18:50.000Z,35.3
2019-06-26T14:20:50.000Z,35.3
2019-06-26T14:21:50.000Z,35.3
2019-06-26T14:23:35.000Z,35.4
2019-06-26T14:25:50.000Z,35.2
2019-06-26T14:26:50.000Z,35.2
2019-06-26T14:28:50.000Z,35.3
2019-06-26T14:30:50.000Z,35.1
2019-06-26T14:31:50.000Z,35.2
2019-06-26T14:33:50.000Z,35.3
2019-06-26T14:35:35.000Z,35.4
2019-06-26T14:36:35.000Z,35.4
2019-06-26T14:37:50.000Z,35.4
2019-06-26T14:39:50.000Z,35.5
2019-06-26T14:41:35.000Z,35.5
2019-06-26T14:42:50.000Z,35.3
2019-06-26T14:43:50.000Z,35.3
2019-06-26T14:45:50.000Z,35.4
2019-06-26T14:46:50.000Z,35.5
2019-06-26T14:48:35.000Z,35.6
2019-06-26T14:49:50.000Z,35.6
2019-06-26T14:50:50.000Z,35.6
2019-06-26T14:52:50.000Z,35.6
2019-06-26T14:53:50.000Z,35.6
2019-06-26T14:54:50.000Z,35.7
2019-06-26T14:55:50.000Z,35.7
2019-06-26T15:05:48.000Z,34.6
2019-06-26T15:07:48.000Z,34.7
2019-06-26T15:09:48.000Z,34.8
2019-06-26T15:11:48.000Z,35
2019-06-26T15:13:48.000Z,35
2019-06-26T15:15:48.000Z,35.2
2019-06-26T15:17:33.000Z,35.3
2019-06-26T15:18:48.000Z,35.3
2019-06-26T15:20:48.000Z,35.4
2019-06-26T15:21:48.000Z,35.4
2019-06-26T15:23:48.000Z,35.5
2019-06-26T15:25:48.000Z,35.6
2019-06-26T15:27:48.000Z,35.6
2019-06-26T15:29:48.000Z,35.6
2019-06-26T15:30:48.000Z,35.6
2019-06-26T15:32:48.000Z,35.7
2019-06-26T15:34:48.000Z,35.7
2019-06-26T15:35:48.000Z,35.7
2019-06-26T15:36:48.000Z,35.8
2019-06-26T15:37:48.000Z,35.9
2019-06-26T15:38:48.000Z,36
2019-06-26T15:40:48.000Z,36
2019-06-26T15:41:48.000Z,36
2019-06-26T15:43:48.000Z,36
2019-06-26T15:44:48.000Z,36
2019-06-26T15:45:48.000Z,36
2019-06-26T15:47:48.000Z,36.1
2019-06-26T15:49:48.000Z,36.1
2019-06-26T15:50:48.000Z,36.1
2019-06-26T15:52:48.000Z,36.1
2019-06-26T15:54:48.000Z,36.1
2019-06-26T15:55:48.000Z,36.1
2019-06-26T15:57:48.000Z,36.1
2019-06-26T15:59:48.000Z,36
2019-06-26T16:01:48.000Z,35.9
2019-06-26T16:03:48.000Z,35.8
2019-06-26T16:05:48.000Z,35.7
2019-06-26T16:06:48.000Z,35.7
2019-06-26T16:08:33.000Z,35.8
2019-06-26T16:09:48.000Z,35.8
2019-06-26T16:11:48.000Z,35.8
2019-06-26T16:12:48.000Z,35.8
2019-06-26T16:13:48.000Z,35.9
2019-06-26T16:15:33.000Z,35.9
2019-06-26T16:16:48.000Z,35.9
2019-06-26T16:18:48.000Z,35.9
2019-06-26T16:19:48.000Z,35.9
2019-06-26T16:21:48.000Z,35.8
2019-06-26T16:22:48.000Z,35.8
2019-06-26T16:24:48.000Z,35.7
2019-06-26T16:26:33.000Z,35.8
2019-06-26T16:27:33.000Z,35.7
2019-06-26T16:28:48.000Z,35.7
2019-06-26T16:29:48.000Z,35.7
2019-06-26T16:31:48.000Z,35.8
2019-06-26T16:32:48.000Z,35.8
2019-06-26T16:34:48.000Z,35.8
2019-06-26T16:36:48.000Z,35.8
2019-06-26T16:37:48.000Z,35.9
2019-06-26T16:38:48.000Z,35.9
2019-06-26T16:40:48.000Z,36
2019-06-26T16:42:48.000Z,36
2019-06-26T16:43:48.000Z,36
2019-06-26T16:44:48.000Z,36
2019-06-26T16:46:48.000Z,36
2019-06-26T16:48:48.000Z,36
2019-06-26T16:49:48.000Z,36
2019-06-26T16:50:48.000Z,36
2019-06-26T16:52:33.000Z,36
2019-06-26T16:53:35.000Z,35.9
2019-06-26T16:54:48.000Z,35.9
2019-06-26T16:56:48.000Z,35.8
2019-06-26T16:58:48.000Z,35.9
2019-06-26T17:00:48.000Z,35.8
2019-06-26T17:01:48.000Z,35.8
2019-06-26T17:02:48.000Z,35.8
2019-06-26T17:04:48.000Z,35.8
2019-06-26T17:05:48.000Z,35.9
2019-06-26T17:06:48.000Z,36
2019-06-26T17:07:48.000Z,36
2019-06-26T17:09:48.000Z,36.2
2019-06-26T17:10:48.000Z,36.2
2019-06-26T17:12:48.000Z,36.1
2019-06-26T17:14:48.000Z,36
2019-06-26T17:16:48.000Z,35.9
2019-06-26T17:17:48.000Z,35.9
2019-06-26T17:19:48.000Z,35.8
2019-06-26T17:20:48.000Z,35.8
2019-06-26T17:22:48.000Z,35.9
2019-06-26T17:24:48.000Z,35.8
2019-06-26T17:26:48.000Z,35.8
2019-06-26T17:27:48.000Z,35.8
2019-06-26T17:29:48.000Z,35.8
2019-06-26T17:31:48.000Z,35.8
2019-06-26T17:32:48.000Z,35.8
2019-06-26T17:34:48.000Z,35.9
2019-06-26T17:35:48.000Z,35.9
2019-06-26T17:37:48.000Z,35.9
2019-06-26T17:38:48.000Z,36
2019-06-26T17:40:48.000Z,36
2019-06-26T17:42:48.000Z,36
2019-06-26T17:44:48.000Z,35.9
2019-06-26T17:45:48.000Z,35.9
2019-06-26T17:46:48.000Z,35.9
2019-06-26T17:48:48.000Z,36
2019-06-26T17:50:48.000Z,35.9
2019-06-26T17:52:33.000Z,35.8
2019-06-26T17:53:48.000Z,35.7
2019-06-26T17:54:48.000Z,35.7
2019-06-26T17:56:48.000Z,35.7
2019-06-26T17:58:48.000Z,35.7
2019-06-26T17:59:48.000Z,35.7
2019-06-26T18:01:48.000Z,35.8
2019-06-26T18:03:48.000Z,35.9
2019-06-26T18:05:48.000Z,35.9
2019-06-26T18:06:48.000Z,36
2019-06-26T18:08:48.000Z,36
2019-06-26T18:10:33.000Z,36.1
2019-06-26T18:11:48.000Z,36.1
2019-06-26T18:12:48.000Z,36.2
2019-06-26T18:14:48.000Z,36.2
2019-06-26T18:16:48.000Z,36.2
2019-06-26T18:18:48.000Z,36.1
2019-06-26T18:20:48.000Z,36.1
2019-06-26T18:22:48.000Z,36
2019-06-26T18:24:55.000Z,35.8
2019-06-26T18:26:55.000Z,35.8
2019-06-26T18:28:55.000Z,35.8
2019-06-26T18:30:55.000Z,35.8
2019-06-26T18:33:03.000Z,35.8
2019-06-26T18:34:18.000Z,35.9
2019-06-26T18:35:18.000Z,36
2019-06-26T18:37:18.000Z,36
2019-06-26T18:38:18.000Z,36
2019-06-26T18:40:18.000Z,36
2019-06-26T18:42:18.000Z,36
2019-06-26T18:44:18.000Z,36
2019-06-26T18:46:18.000Z,36
2019-06-26T18:48:18.000Z,36
2019-06-26T18:50:18.000Z,36.1
2019-06-26T18:51:18.000Z,36.1
2019-06-26T18:53:18.000Z,36.2
2019-06-26T18:54:18.000Z,36.2
2019-06-26T18:55:18.000Z,36.2
2019-06-26T18:57:18.000Z,36.2
2019-06-26T18:58:18.000Z,36.2
2019-06-26T19:00:03.000Z,36.2
2019-06-26T19:01:18.000Z,36.2
2019-06-26T19:02:18.000Z,36.1
2019-06-26T19:04:03.000Z,36.2
2019-06-26T19:05:18.000Z,36.1
2019-06-26T19:07:17.000Z,36.1
2019-06-26T19:08:18.000Z,36.2
2019-06-26T19:10:18.000Z,36.2
2019-06-26T19:12:03.000Z,36.2
2019-06-26T19:13:17.000Z,36.2
2019-06-26T19:15:17.000Z,36.1
2019-06-26T19:17:02.000Z,36
2019-06-26T19:18:18.000Z,36
2019-06-26T19:20:03.000Z,35.9
2019-06-26T19:21:17.000Z,35.8
2019-06-26T19:22:17.000Z,35.8
2019-06-26T19:24:03.000Z,35.7
2019-06-26T19:25:17.000Z,35.6
2019-06-26T19:26:18.000Z,35.6
2019-06-26T19:28:17.000Z,35.6
2019-06-26T19:29:18.000Z,35.7
2019-06-26T19:31:18.000Z,35.8
2019-06-26T19:32:18.000Z,35.8
2019-06-26T19:34:03.000Z,35.9
2019-06-26T19:35:17.000Z,35.9
2019-06-26T19:36:17.000Z,35.8
2019-06-26T19:38:18.000Z,35.6
2019-06-26T19:39:18.000Z,35.6
2019-06-26T19:41:18.000Z,35.6
2019-06-26T19:43:18.000Z,35.6
2019-06-26T19:45:18.000Z,35.7
2019-06-26T19:46:18.000Z,35.7
2019-06-26T19:48:18.000Z,35.8
2019-06-26T19:49:18.000Z,35.9
2019-06-26T19:51:18.000Z,36
2019-06-26T19:52:18.000Z,36
2019-06-26T19:54:03.000Z,36.1
2019-06-26T19:55:18.000Z,36
2019-06-26T19:57:03.000Z,36
2019-06-26T19:58:18.000Z,35.9
2019-06-26T20:00:03.000Z,35.8
2019-06-26T20:02:18.000Z,35.6
2019-06-26T20:03:18.000Z,35.6
2019-06-26T20:05:03.000Z,35.7
2019-06-26T20:06:18.000Z,35.6
2019-06-26T20:08:02.000Z,35.6
2019-06-26T20:09:17.000Z,35.7
2019-06-26T20:10:17.000Z,35.7
2019-06-26T20:12:17.000Z,35.8
2019-06-26T20:13:17.000Z,35.9
2019-06-26T20:15:17.000Z,35.9
2019-06-26T20:16:17.000Z,35.8
2019-06-26T20:18:02.000Z,35.9
2019-06-26T20:19:17.000Z,35.8
2019-06-26T20:20:17.000Z,35.8
2019-06-26T20:21:17.000Z,35.8
2019-06-26T20:23:17.000Z,35.8
2019-06-26T20:24:17.000Z,35.9
2019-06-26T20:26:17.000Z,35.9
2019-06-26T20:27:17.000Z,35.9
2019-06-26T20:28:17.000Z,35.9
2019-06-26T20:30:17.000Z,36
2019-06-26T20:31:17.000Z,36
2019-06-26T20:32:17.000Z,36
2019-06-26T20:34:17.000Z,36.1
2019-06-26T20:36:02.000Z,36
2019-06-26T20:37:17.000Z,36
2019-06-26T20:39:17.000Z,36
2019-06-26T20:40:17.000Z,36
2019-06-26T20:42:17.000Z,36
2019-06-26T20:43:17.000Z,36
2019-06-26T20:45:02.000Z,36
2019-06-26T20:47:17.000Z,35.8
2019-06-26T20:49:02.000Z,35.7
2019-06-26T20:50:17.000Z,35.7
2019-06-26T20:52:17.000Z,35.6
2019-06-26T20:54:17.000Z,35.6
2019-06-26T20:56:02.000Z,35.6
2019-06-26T20:57:17.000Z,35.5
2019-06-26T20:58:17.000Z,35.5
2019-06-26T21:00:02.000Z,35.5
2019-06-26T21:01:17.000Z,35.5
2019-06-26T21:02:17.000Z,35.5
2019-06-26T21:04:02.000Z,35.6
2019-06-26T21:05:17.000Z,35.6
2019-06-26T21:06:17.000Z,35.6
2019-06-26T21:08:02.000Z,35.7
2019-06-26T21:10:17.000Z,35.6
2019-06-26T21:12:17.000Z,35.5
2019-06-26T21:13:17.000Z,35.5
2019-06-26T21:14:17.000Z,35.5
2019-06-26T21:16:02.000Z,35.6
2019-06-26T21:17:17.000Z,35.6
2019-06-26T21:18:17.000Z,35.6
2019-06-26T21:20:17.000Z,35.6
2019-06-26T21:21:17.000Z,35.5
2019-06-26T21:22:17.000Z,35.5
2019-06-26T21:24:17.000Z,35.6
2019-06-26T21:26:17.000Z,35.6
2019-06-26T21:28:17.000Z,35.6
2019-06-26T21:29:17.000Z,35.6
2019-06-26T21:31:17.000Z,35.6
2019-06-26T21:32:17.000Z,35.6
2019-06-26T21:34:02.000Z,35.6
2019-06-26T21:35:17.000Z,35.6
2019-06-26T21:36:17.000Z,35.7
2019-06-26T21:38:17.000Z,35.8
2019-06-26T21:40:17.000Z,35.7
2019-06-26T21:41:17.000Z,35.7
2019-06-26T21:42:17.000Z,35.7
2019-06-26T21:44:17.000Z,35.7
2019-06-26T21:45:17.000Z,35.8
2019-06-26T21:47:17.000Z,35.7
2019-06-26T21:49:17.000Z,35.6
2019-06-26T21:50:17.000Z,35.6
2019-06-26T21:51:17.000Z,35.7
2019-06-26T21:53:02.000Z,35.8
2019-06-26T21:54:17.000Z,35.8
2019-06-26T21:55:17.000Z,35.8
2019-06-26T21:57:17.000Z,35.7
2019-06-26T21:58:17.000Z,35.7
2019-06-26T22:00:02.000Z,35.8
2019-06-26T22:02:17.000Z,35.6
2019-06-26T22:03:17.000Z,35.5
2019-06-26T22:05:17.000Z,35.5
2019-06-26T22:06:17.000Z,35.5
2019-06-26T22:08:02.000Z,35.5
2019-06-26T22:09:02.000Z,35.5
2019-06-26T22:10:17.000Z,35.5
2019-06-26T22:11:17.000Z,35.5
2019-06-26T22:13:02.000Z,35.6
2019-06-26T22:14:17.000Z,35.5
2019-06-26T22:15:17.000Z,35.6
2019-06-26T22:16:17.000Z,35.6
2019-06-26T22:17:17.000Z,35.7
2019-06-26T22:19:02.000Z,35.8
2019-06-26T22:20:17.000Z,35.8
2019-06-26T22:21:17.000Z,35.8
2019-06-26T22:23:17.000Z,35.9
2019-06-26T22:25:02.000Z,35.9
2019-06-26T22:26:17.000Z,35.8
2019-06-26T22:28:17.000Z,35.8
2019-06-26T22:29:17.000Z,35.8
2019-06-26T22:30:17.000Z,35.9
2019-06-26T22:32:17.000Z,35.9
2019-06-26T22:34:02.000Z,35.8